Time;durP1;ratioP1;P1;durP2;ratioP2;P2;SDS_P1;SDS_P2;PMS_P1;PMS_P2;Temp;Humidity;BMP_temperature;BMP_pressure;BME280_temperature;BME280_humidity;BME280_pressure;Samples;Min_cycle;Max_cycle;Signal;HPM_P1;HPM_P2
2023/09/15 00:01:41;;;;;;;6.30;2.95;;;;;;;;;;5074991;28;20212;-46
2023/09/15 00:04:11;;;;;;;34.60;10.85;;;;;;;;;;5075348;28;20211;-46
2023/09/15 00:06:39;;;;;;;11.63;3.17;;;;;;;;;;5074122;28;20583;-46
2023/09/15 00:09:18;;;;;;;7.85;3.35;;;;;;;;;;5074972;28;20199;-46
2023/09/15 00:11:49;;;;;;;6.60;3.35;;;;;;;;;;5075001;28;20655;-46
2023/09/15 00:14:17;;;;;;;5.57;2.28;;;;;;;;;;5074734;28;20244;-46
2023/09/15 00:16:45;;;;;;;7.75;2.60;;;;;;;;;;5075262;28;20269;-47
2023/09/15 00:19:14;;;;;;;3.13;2.10;;;;;;;;;;5075037;28;20211;-45
2023/09/15 00:21:43;;;;;;;4.10;2.20;;;;;;;;;;5075080;28;20195;-46
2023/09/15 00:24:10;;;;;;;4.78;2.13;;;;;;;;;;5074858;28;20207;-45
2023/09/15 00:26:38;;;;;;;2.90;1.83;;;;;;;;;;5074492;28;20224;-47
2023/09/15 00:29:07;;;;;;;3.20;1.88;;;;;;;;;;5074366;28;20206;-46
2023/09/15 00:31:35;;;;;;;6.85;2.30;;;;;;;;;;5073113;28;20227;-46
2023/09/15 00:34:04;;;;;;;3.03;2.03;;;;;;;;;;5073515;28;20203;-49
2023/09/15 00:36:32;;;;;;;3.17;1.83;;;;;;;;;;5074392;28;20203;-46
2023/09/15 00:39:01;;;;;;;5.97;2.22;;;;;;;;;;5074336;28;20218;-46
2023/09/15 00:41:28;;;;;;;10.50;6.70;;;;;;;;;;5073973;28;20205;-48
2023/09/15 00:43:56;;;;;;;10.60;4.82;;;;;;;;;;5074504;28;20207;-46
2023/09/15 00:46:23;;;;;;;49.10;13.95;;;;;;;;;;5073858;28;20226;-46
2023/09/15 00:48:51;;;;;;;14.80;4.80;;;;;;;;;;5073155;28;20260;-46
2023/09/15 00:51:21;;;;;;;6.90;3.30;;;;;;;;;;5073967;28;20204;-45
2023/09/15 00:53:49;;;;;;;3.80;2.20;;;;;;;;;;5072600;28;20196;-46
2023/09/15 00:56:17;;;;;;;3.20;2.00;;;;;;;;;;5071028;28;20211;-46
2023/09/15 00:58:45;;;;;;;3.30;2.03;;;;;;;;;;5071074;28;20199;-46
2023/09/15 01:01:13;;;;;;;8.25;2.13;;;;;;;;;;5070847;28;20203;-47
2023/09/15 01:03:41;;;;;;;4.55;2.38;;;;;;;;;;5070955;28;20257;-46
2023/09/15 01:06:11;;;;;;;2.72;1.98;;;;;;;;;;5070648;28;20223;-46
2023/09/15 01:08:38;;;;;;;3.50;2.20;;;;;;;;;;5054340;28;20221;-46
2023/09/15 01:11:05;;;;;;;4.35;2.00;;;;;;;;;;5071823;28;20652;-46
2023/09/15 01:13:33;;;;;;;7.63;2.38;;;;;;;;;;5071952;28;20208;-48
2023/09/15 01:16:09;;;;;;;4.43;2.08;;;;;;;;;;5071929;28;20210;-46
2023/09/15 01:18:50;;;;;;;7.28;3.63;;;;;;;;;;5056025;28;20717;-46
2023/09/15 01:21:32;;;;;;;3.97;2.40;;;;;;;;;;5073725;28;20553;-46
2023/09/15 01:24:29;;;;;;;5.18;2.50;;;;;;;;;;5073500;28;20199;-47
2023/09/15 01:27:24;;;;;;;6.30;2.10;;;;;;;;;;5056055;28;20215;-46
2023/09/15 01:29:53;;;;;;;5.28;2.28;;;;;;;;;;5073974;28;20207;-45
2023/09/15 01:32:22;;;;;;;4.07;2.33;;;;;;;;;;5072333;28;20252;-46
2023/09/15 01:34:51;;;;;;;5.32;2.72;;;;;;;;;;5073483;28;20210;-47
2023/09/15 01:37:19;;;;;;;6.13;2.95;;;;;;;;;;5073303;28;20206;-48
2023/09/15 01:39:47;;;;;;;3.58;2.10;;;;;;;;;;5073322;28;20200;-49
2023/09/15 01:42:14;;;;;;;6.13;3.00;;;;;;;;;;5073488;28;20206;-46
2023/09/15 01:44:41;;;;;;;5.30;2.78;;;;;;;;;;5073261;28;20200;-49
2023/09/15 01:47:12;;;;;;;4.82;2.70;;;;;;;;;;5073695;28;20227;-46
2023/09/15 01:49:40;;;;;;;6.90;2.83;;;;;;;;;;5072511;28;20600;-46
2023/09/15 01:52:07;;;;;;;9.65;4.30;;;;;;;;;;5073171;28;20655;-48
2023/09/15 01:54:35;;;;;;;4.30;2.67;;;;;;;;;;5056092;28;20225;-49
2023/09/15 01:57:02;;;;;;;6.32;3.08;;;;;;;;;;5073523;28;20242;-46
2023/09/15 01:59:30;;;;;;;4.65;2.53;;;;;;;;;;5072319;28;20210;-48
2023/09/15 02:01:57;;;;;;;7.90;2.67;;;;;;;;;;5072259;28;20204;-46
2023/09/15 02:04:24;;;;;;;9.40;3.95;;;;;;;;;;5073347;28;20203;-46
2023/09/15 02:06:51;;;;;;;11.65;4.55;;;;;;;;;;5071917;28;20226;-48
2023/09/15 02:09:19;;;;;;;21.38;5.82;;;;;;;;;;5072163;28;20215;-47
2023/09/15 02:11:46;;;;;;;13.13;4.30;;;;;;;;;;5072076;28;20543;-46
2023/09/15 02:14:13;;;;;;;7.57;4.00;;;;;;;;;;5071964;28;20207;-46
2023/09/15 02:16:42;;;;;;;6.00;3.38;;;;;;;;;;5072998;28;20580;-48
2023/09/15 02:19:10;;;;;;;6.82;3.42;;;;;;;;;;5071803;28;20249;-47
2023/09/15 02:21:37;;;;;;;14.18;4.28;;;;;;;;;;5088550;28;20203;-46
2023/09/15 02:24:05;;;;;;;8.90;3.40;;;;;;;;;;5072894;28;20260;-46
2023/09/15 02:26:32;;;;;;;5.40;2.63;;;;;;;;;;5073024;28;20227;-46
2023/09/15 02:28:59;;;;;;;6.20;3.30;;;;;;;;;;5072922;28;20201;-46
2023/09/15 02:31:26;;;;;;;4.68;2.95;;;;;;;;;;5075476;28;20203;-46
2023/09/15 02:33:57;;;;;;;4.70;2.72;;;;;;;;;;5076523;28;20702;-46
2023/09/15 02:36:24;;;;;;;7.35;3.35;;;;;;;;;;5076490;28;20215;-46
2023/09/15 02:38:54;;;;;;;3.08;2.22;;;;;;;;;;5077166;28;20222;-48
2023/09/15 02:41:22;;;;;;;4.43;2.65;;;;;;;;;;5075420;28;20257;-46
2023/09/15 02:43:49;;;;;;;6.70;2.75;;;;;;;;;;5075295;28;20726;-46
2023/09/15 02:46:16;;;;;;;4.60;2.85;;;;;;;;;;5076477;28;20575;-46
2023/09/15 02:48:44;;;;;;;4.70;3.10;;;;;;;;;;5076636;28;20199;-47
2023/09/15 02:51:13;;;;;;;4.20;2.20;;;;;;;;;;5076528;28;20200;-46
2023/09/15 02:53:40;;;;;;;6.03;3.40;;;;;;;;;;5076857;28;20249;-47
2023/09/15 02:56:08;;;;;;;4.15;2.67;;;;;;;;;;5075088;28;20683;-46
2023/09/15 02:58:37;;;;;;;6.88;2.85;;;;;;;;;;5075030;28;20672;-46
2023/09/15 03:01:15;;;;;;;29.92;8.32;;;;;;;;;;5075433;28;20188;-46
2023/09/15 03:03:49;;;;;;;6.28;3.42;;;;;;;;;;5075491;28;20571;-46
2023/09/15 03:06:18;;;;;;;3.00;2.25;;;;;;;;;;5074767;28;20199;-47
2023/09/15 03:08:45;;;;;;;4.40;2.90;;;;;;;;;;5075206;28;20207;-46
2023/09/15 03:11:16;;;;;;;8.43;3.70;;;;;;;;;;5075172;28;20210;-47
2023/09/15 03:13:45;;;;;;;7.32;3.35;;;;;;;;;;5074814;28;20212;-47
2023/09/15 03:16:12;;;;;;;7.60;3.60;;;;;;;;;;5074889;28;20239;-46
2023/09/15 03:18:42;;;;;;;5.30;3.00;;;;;;;;;;5075063;28;20203;-47
2023/09/15 03:21:10;;;;;;;3.55;2.40;;;;;;;;;;5074680;28;20247;-45
2023/09/15 03:23:41;;;;;;;5.15;3.47;;;;;;;;;;5074842;28;20203;-46
2023/09/15 03:26:08;;;;;;;6.47;4.05;;;;;;;;;;5074477;28;20246;-46
2023/09/15 03:28:38;;;;;;;4.60;2.92;;;;;;;;;;5074793;28;20226;-46
2023/09/15 03:31:05;;;;;;;5.75;3.22;;;;;;;;;;5070296;28;20206;-46
2023/09/15 03:33:32;;;;;;;7.45;3.03;;;;;;;;;;5074022;28;20200;-46
2023/09/15 03:36:00;;;;;;;10.32;3.72;;;;;;;;;;5072145;28;20195;-49
2023/09/15 03:38:28;;;;;;;4.07;2.80;;;;;;;;;;5074828;28;20562;-51
2023/09/15 03:40:57;;;;;;;5.68;3.40;;;;;;;;;;5073539;28;20245;-46
2023/09/15 03:43:25;;;;;;;8.65;3.63;;;;;;;;;;5071201;28;20191;-47
2023/09/15 03:45:52;;;;;;;5.85;3.05;;;;;;;;;;5066727;28;20199;-48
2023/09/15 03:48:20;;;;;;;7.35;3.20;;;;;;;;;;5063437;28;20228;-48
2023/09/15 03:50:48;;;;;;;7.93;3.60;;;;;;;;;;5063251;28;20599;-46
2023/09/15 03:53:16;;;;;;;3.90;2.90;;;;;;;;;;5075609;28;20214;-47
2023/09/15 03:55:43;;;;;;;6.03;3.42;;;;;;;;;;5059227;28;20584;-50
2023/09/15 03:58:11;;;;;;;6.55;3.15;;;;;;;;;;5053949;28;20207;-47
2023/09/15 04:00:38;;;;;;;4.35;2.78;;;;;;;;;;5055240;28;20269;-46
2023/09/15 04:03:06;;;;;;;5.55;3.22;;;;;;;;;;5054769;28;20204;-48
2023/09/15 04:05:34;;;;;;;14.13;5.53;;;;;;;;;;5053047;28;20235;-47
2023/09/15 04:08:02;;;;;;;7.35;3.63;;;;;;;;;;5052668;28;20247;-46
2023/09/15 04:10:29;;;;;;;5.60;3.10;;;;;;;;;;5063128;28;20232;-46
2023/09/15 04:12:56;;;;;;;5.85;2.90;;;;;;;;;;5073613;28;20219;-47
2023/09/15 04:15:23;;;;;;;4.20;3.08;;;;;;;;;;5073704;28;20239;-47
2023/09/15 04:17:50;;;;;;;3.70;2.72;;;;;;;;;;5073830;28;20235;-48
2023/09/15 04:20:18;;;;;;;6.05;3.05;;;;;;;;;;5071691;28;20222;-49
2023/09/15 04:23:05;;;;;;;9.55;2.97;;;;;;;;;;5072787;28;20227;-47
2023/09/15 04:25:33;;;;;;;5.82;3.17;;;;;;;;;;5072410;28;20593;-48
2023/09/15 04:28:00;;;;;;;4.30;2.83;;;;;;;;;;5072202;28;20231;-48
2023/09/15 04:30:27;;;;;;;3.85;2.53;;;;;;;;;;5072165;28;20610;-48
2023/09/15 04:32:56;;;;;;;4.18;2.67;;;;;;;;;;5072089;28;20785;-47
2023/09/15 04:35:24;;;;;;;5.93;2.80;;;;;;;;;;5072025;28;20302;-47
2023/09/15 04:37:52;;;;;;;6.18;2.85;;;;;;;;;;5073601;28;20253;-47
2023/09/15 04:40:18;;;;;;;3.40;2.25;;;;;;;;;;5072373;28;20651;-46
2023/09/15 04:42:46;;;;;;;4.22;2.65;;;;;;;;;;5072412;28;20223;-46
2023/09/15 04:45:13;;;;;;;4.50;2.90;;;;;;;;;;5073413;28;20231;-46
2023/09/15 04:47:40;;;;;;;5.03;2.92;;;;;;;;;;5072123;28;20235;-46
2023/09/15 04:50:20;;;;;;;5.60;3.40;;;;;;;;;;5071812;28;20219;-47
2023/09/15 04:52:49;;;;;;;5.68;3.40;;;;;;;;;;5071756;28;20223;-46
2023/09/15 04:55:16;;;;;;;7.47;3.97;;;;;;;;;;5071257;28;20734;-48
2023/09/15 04:57:46;;;;;;;6.53;3.92;;;;;;;;;;5070509;28;20242;-49
2023/09/15 05:00:23;;;;;;;6.63;3.97;;;;;;;;;;5070070;28;20231;-46
2023/09/15 05:02:59;;;;;;;7.85;4.22;;;;;;;;;;5070171;28;20223;-46
2023/09/15 05:05:28;;;;;;;8.40;4.25;;;;;;;;;;5070268;28;20317;-47
2023/09/15 05:07:56;;;;;;;6.25;3.95;;;;;;;;;;5071049;28;20242;-47
2023/09/15 05:10:24;;;;;;;6.07;3.90;;;;;;;;;;5071648;28;20223;-50
2023/09/15 05:12:52;;;;;;;6.05;3.47;;;;;;;;;;5071892;28;20574;-46
2023/09/15 05:15:20;;;;;;;5.40;3.35;;;;;;;;;;5071888;28;20223;-48
2023/09/15 05:17:47;;;;;;;10.38;3.85;;;;;;;;;;5071737;28;20242;-47
2023/09/15 05:20:16;;;;;;;5.78;3.85;;;;;;;;;;5071125;28;20227;-47
2023/09/15 05:22:44;;;;;;;7.70;3.65;;;;;;;;;;5070786;28;20565;-48
2023/09/15 05:25:11;;;;;;;6.72;3.60;;;;;;;;;;5071725;28;20643;-45
2023/09/15 05:27:38;;;;;;;5.82;3.45;;;;;;;;;;5070310;28;20719;-48
2023/09/15 05:30:06;;;;;;;4.97;3.50;;;;;;;;;;5071460;28;20191;-47
2023/09/15 05:32:36;;;;;;;5.50;3.70;;;;;;;;;;5071381;28;20203;-46
2023/09/15 05:35:08;;;;;;;4.60;3.28;;;;;;;;;;5071477;28;20210;-45
2023/09/15 05:37:35;;;;;;;6.22;3.65;;;;;;;;;;5072032;28;20245;-47
2023/09/15 05:40:03;;;;;;;10.57;4.03;;;;;;;;;;5056178;28;20211;-45
2023/09/15 05:42:30;;;;;;;10.82;3.60;;;;;;;;;;5072461;28;20214;-46
2023/09/15 05:44:58;;;;;;;7.05;3.97;;;;;;;;;;5073462;28;20195;-46
2023/09/15 05:47:25;;;;;;;7.82;3.83;;;;;;;;;;5073573;28;20239;-48
2023/09/15 05:49:52;;;;;;;4.63;2.75;;;;;;;;;;5073302;28;20203;-48
2023/09/15 05:52:21;;;;;;;5.68;3.47;;;;;;;;;;5071399;28;20222;-46
2023/09/15 05:54:47;;;;;;;5.25;3.53;;;;;;;;;;5073464;28;20294;-46
2023/09/15 05:57:15;;;;;;;5.22;3.10;;;;;;;;;;5073137;28;20207;-48
2023/09/15 05:59:42;;;;;;;6.35;3.40;;;;;;;;;;5073140;28;20195;-46
2023/09/15 06:02:10;;;;;;;5.68;3.15;;;;;;;;;;5073173;28;20207;-46
2023/09/15 06:04:37;;;;;;;5.32;3.38;;;;;;;;;;5073050;28;20203;-46
2023/09/15 06:07:04;;;;;;;6.70;3.25;;;;;;;;;;5076870;28;20203;-47
2023/09/15 06:09:32;;;;;;;6.22;3.10;;;;;;;;;;5076077;28;20204;-46
2023/09/15 06:12:00;;;;;;;6.00;3.33;;;;;;;;;;5077494;28;20269;-45
2023/09/15 06:14:27;;;;;;;4.93;3.17;;;;;;;;;;5077037;28;20227;-46
2023/09/15 06:16:55;;;;;;;4.18;2.90;;;;;;;;;;5077180;28;20242;-46
2023/09/15 06:19:22;;;;;;;4.90;2.80;;;;;;;;;;5077242;28;20286;-48
2023/09/15 06:21:49;;;;;;;5.07;2.97;;;;;;;;;;5077226;28;20710;-46
2023/09/15 06:24:16;;;;;;;5.47;3.10;;;;;;;;;;5076930;28;20328;-46
2023/09/15 06:26:43;;;;;;;4.38;2.13;;;;;;;;;;5076816;28;20199;-45
2023/09/15 06:29:12;;;;;;;3.72;2.15;;;;;;;;;;5076926;28;20238;-45
2023/09/15 06:31:40;;;;;;;3.30;2.25;;;;;;;;;;5076890;28;20214;-46
2023/09/15 06:34:07;;;;;;;4.32;2.10;;;;;;;;;;5076949;28;20264;-45
2023/09/15 06:36:36;;;;;;;3.55;2.15;;;;;;;;;;5076636;28;20199;-48
2023/09/15 06:39:05;;;;;;;3.92;2.10;;;;;;;;;;5075904;28;20233;-45
2023/09/15 06:41:32;;;;;;;9.98;2.58;;;;;;;;;;5075705;28;20200;-45
2023/09/15 06:43:59;;;;;;;2.83;1.70;;;;;;;;;;5076558;28;20235;-48
2023/09/15 06:46:27;;;;;;;6.40;1.70;;;;;;;;;;5076475;28;20544;-51
2023/09/15 06:48:54;;;;;;;2.30;1.40;;;;;;;;;;5076520;28;20692;-50
2023/09/15 06:51:21;;;;;;;2.40;1.60;;;;;;;;;;5076630;28;20230;-45
2023/09/15 06:53:48;;;;;;;5.47;1.80;;;;;;;;;;5076342;28;20208;-47
2023/09/15 06:56:16;;;;;;;4.78;1.50;;;;;;;;;;5075304;28;20203;-47
2023/09/15 06:58:43;;;;;;;3.22;1.65;;;;;;;;;;5076570;28;20207;-46
2023/09/15 07:01:10;;;;;;;2.65;1.48;;;;;;;;;;5076487;28;20199;-45
2023/09/15 07:03:37;;;;;;;2.10;1.55;;;;;;;;;;5076363;28;20226;-46
2023/09/15 07:06:05;;;;;;;3.03;1.38;;;;;;;;;;5076555;28;20252;-46
2023/09/15 07:08:32;;;;;;;4.93;2.20;;;;;;;;;;5076326;28;20231;-47
2023/09/15 07:10:59;;;;;;;2.85;1.85;;;;;;;;;;5076013;28;20264;-46
2023/09/15 07:13:26;;;;;;;2.67;1.40;;;;;;;;;;5076056;28;20205;-46
2023/09/15 07:15:54;;;;;;;2.55;1.40;;;;;;;;;;5072844;28;20200;-46
2023/09/15 07:18:21;;;;;;;2.38;1.40;;;;;;;;;;5051294;28;20235;-46
2023/09/15 07:20:48;;;;;;;5.30;1.35;;;;;;;;;;5068845;28;20588;-45
2023/09/15 07:23:15;;;;;;;2.10;1.13;;;;;;;;;;5073517;28;20226;-46
2023/09/15 07:25:45;;;;;;;2.75;1.40;;;;;;;;;;5073836;28;20250;-46
2023/09/15 07:28:13;;;;;;;1.88;1.30;;;;;;;;;;5073659;28;20730;-45
2023/09/15 07:30:41;;;;;;;2.28;0.82;;;;;;;;;;5074060;28;20234;-45
2023/09/15 07:33:09;;;;;;;2.35;1.17;;;;;;;;;;5073034;28;20274;-47
2023/09/15 07:35:36;;;;;;;3.95;1.30;;;;;;;;;;5073903;28;20625;-46
2023/09/15 07:38:04;;;;;;;4.47;1.30;;;;;;;;;;5073769;28;20234;-46
2023/09/15 07:40:31;;;;;;;8.25;1.30;;;;;;;;;;5073875;28;20696;-46
2023/09/15 07:42:59;;;;;;;1.67;0.90;;;;;;;;;;5073923;28;20227;-46
2023/09/15 07:45:27;;;;;;;1.67;0.90;;;;;;;;;;5073423;28;20229;-47
2023/09/15 07:47:54;;;;;;;1.45;0.85;;;;;;;;;;5073195;28;20237;-46
2023/09/15 07:50:21;;;;;;;1.55;1.05;;;;;;;;;;5073302;28;20886;-45
2023/09/15 07:52:48;;;;;;;3.13;1.17;;;;;;;;;;5073581;28;20249;-47
2023/09/15 07:55:15;;;;;;;2.58;0.90;;;;;;;;;;5073439;28;20219;-47
2023/09/15 07:57:43;;;;;;;2.60;1.30;;;;;;;;;;5073639;28;20231;-46
2023/09/15 08:00:12;;;;;;;3.00;1.10;;;;;;;;;;5072980;28;20227;-47
2023/09/15 08:02:39;;;;;;;1.73;1.13;;;;;;;;;;5072736;28;20227;-46
2023/09/15 08:05:08;;;;;;;3.13;1.05;;;;;;;;;;5073352;28;20310;-46
2023/09/15 08:07:35;;;;;;;1.80;1.02;;;;;;;;;;5072909;28;20227;-46
2023/09/15 08:10:04;;;;;;;1.83;1.13;;;;;;;;;;5073494;28;20268;-46
2023/09/15 08:12:31;;;;;;;1.70;0.88;;;;;;;;;;5072999;28;20702;-46
2023/09/15 08:14:58;;;;;;;2.60;0.98;;;;;;;;;;5073351;28;20588;-46
2023/09/15 08:17:26;;;;;;;2.97;0.88;;;;;;;;;;5029864;28;1236922;-46
2023/09/15 08:20:01;;;;;;;1.30;0.70;;;;;;;;;;5074036;28;20719;-48
2023/09/15 08:22:30;;;;;;;1.85;1.10;;;;;;;;;;5074076;28;20587;-50
2023/09/15 08:24:58;;;;;;;2.13;1.00;;;;;;;;;;5074183;28;20227;-45
2023/09/15 08:27:26;;;;;;;0.82;0.50;;;;;;;;;;5073357;28;20215;-50
2023/09/15 08:29:53;;;;;;;1.70;0.95;;;;;;;;;;5073229;28;20239;-47
2023/09/15 08:32:20;;;;;;;2.03;1.02;;;;;;;;;;5073269;28;20765;-46
2023/09/15 08:34:47;;;;;;;1.77;1.02;;;;;;;;;;5073739;28;20230;-46
2023/09/15 08:37:14;;;;;;;1.95;0.80;;;;;;;;;;5073703;28;20590;-46
2023/09/15 08:39:42;;;;;;;5.28;0.90;;;;;;;;;;5073684;28;20561;-45
2023/09/15 08:42:17;;;;;;;5.10;1.00;;;;;;;;;;5073362;28;20627;-47
2023/09/15 08:44:44;;;;;;;1.50;0.85;;;;;;;;;;5072430;28;20716;-45
2023/09/15 08:47:11;;;;;;;1.77;0.90;;;;;;;;;;5071653;28;20561;-49
2023/09/15 08:49:39;;;;;;;2.10;1.10;;;;;;;;;;5073320;28;20242;-47
2023/09/15 08:52:07;;;;;;;3.03;0.95;;;;;;;;;;5071951;28;20223;-48
2023/09/15 08:54:35;;;;;;;3.13;1.02;;;;;;;;;;5072370;28;20231;-46
2023/09/15 08:57:02;;;;;;;4.03;1.20;;;;;;;;;;5073459;28;20215;-51
2023/09/15 08:59:30;;;;;;;8.05;1.17;;;;;;;;;;5073007;28;20794;-50
2023/09/15 09:01:57;;;;;;;1.40;0.73;;;;;;;;;;5072957;28;20215;-46
2023/09/15 09:04:24;;;;;;;3.58;1.05;;;;;;;;;;5072967;28;20219;-46
2023/09/15 09:06:52;;;;;;;1.63;0.80;;;;;;;;;;5071901;28;20223;-46
2023/09/15 09:09:19;;;;;;;0.98;0.70;;;;;;;;;;5071379;28;20703;-46
2023/09/15 09:11:46;;;;;;;2.08;1.15;;;;;;;;;;5073261;28;20227;-46
2023/09/15 09:14:17;;;;;;;1.83;0.90;;;;;;;;;;5073020;28;20234;-47
2023/09/15 09:16:46;;;;;;;3.05;0.93;;;;;;;;;;5072430;28;20263;-46
2023/09/15 09:19:14;;;;;;;1.30;0.70;;;;;;;;;;5072728;28;20722;-46
2023/09/15 09:21:41;;;;;;;2.95;1.08;;;;;;;;;;5072956;28;20576;-47
2023/09/15 09:24:09;;;;;;;4.82;0.85;;;;;;;;;;5073016;28;20231;-47
2023/09/15 09:26:37;;;;;;;0.85;0.63;;;;;;;;;;5072747;28;20278;-47
2023/09/15 09:29:05;;;;;;;3.03;1.00;;;;;;;;;;5072775;28;20235;-46
2023/09/15 09:31:32;;;;;;;3.70;0.93;;;;;;;;;;5070894;28;20217;-50
2023/09/15 09:34:00;;;;;;;1.85;0.85;;;;;;;;;;5072786;28;20620;-46
2023/09/15 09:36:28;;;;;;;2.10;1.10;;;;;;;;;;5072650;28;20219;-46
2023/09/15 09:38:55;;;;;;;1.85;0.60;;;;;;;;;;5072922;28;20570;-45
2023/09/15 09:41:28;;;;;;;4.30;0.80;;;;;;;;;;5071262;28;20219;-46
2023/09/15 09:44:03;;;;;;;1.45;0.80;;;;;;;;;;5073305;28;20564;-47
2023/09/15 09:46:31;;;;;;;1.67;0.95;;;;;;;;;;5071924;28;20764;-46
2023/09/15 09:48:59;;;;;;;3.78;0.80;;;;;;;;;;5071576;28;20235;-46
2023/09/15 09:51:28;;;;;;;1.13;0.63;;;;;;;;;;5071285;28;20313;-47
2023/09/15 09:53:56;;;;;;;2.80;0.80;;;;;;;;;;5072698;28;20251;-46
2023/09/15 09:56:23;;;;;;;2.85;0.85;;;;;;;;;;5072404;28;20223;-47
2023/09/15 09:58:51;;;;;;;1.77;0.80;;;;;;;;;;5072884;28;20223;-45
2023/09/15 10:01:18;;;;;;;1.50;0.70;;;;;;;;;;5071816;28;20594;-46
2023/09/15 10:03:45;;;;;;;2.85;0.82;;;;;;;;;;5072538;28;20219;-46
2023/09/15 10:06:16;;;;;;;1.85;0.90;;;;;;;;;;5072426;28;20249;-46
2023/09/15 10:08:45;;;;;;;4.32;0.90;;;;;;;;;;5072636;28;20637;-46
2023/09/15 10:11:13;;;;;;;2.35;0.90;;;;;;;;;;5072109;28;20215;-46
2023/09/15 10:13:41;;;;;;;1.08;0.70;;;;;;;;;;5072380;28;20227;-46
2023/09/15 10:16:08;;;;;;;2.88;0.75;;;;;;;;;;5071340;28;20231;-46
2023/09/15 10:18:36;;;;;;;1.17;0.63;;;;;;;;;;5072648;28;20277;-47
2023/09/15 10:21:03;;;;;;;2.08;0.88;;;;;;;;;;5071921;28;20219;-46
2023/09/15 10:23:30;;;;;;;1.17;0.73;;;;;;;;;;5072343;28;20215;-46
2023/09/15 10:25:57;;;;;;;2.92;1.05;;;;;;;;;;5072288;28;20277;-46
2023/09/15 10:28:25;;;;;;;1.40;0.90;;;;;;;;;;5072333;28;20235;-46
2023/09/15 10:30:55;;;;;;;5.47;0.95;;;;;;;;;;5071760;28;20235;-46
2023/09/15 10:33:25;;;;;;;2.80;0.93;;;;;;;;;;5071621;28;20281;-47
2023/09/15 10:36:00;;;;;;;2.30;1.05;;;;;;;;;;5072349;28;20224;-47
2023/09/15 10:38:29;;;;;;;1.65;0.90;;;;;;;;;;5070946;28;20226;-47
2023/09/15 10:41:03;;;;;;;1.60;0.88;;;;;;;;;;5069790;28;20277;-50
2023/09/15 10:43:31;;;;;;;1.90;0.80;;;;;;;;;;5060204;28;20227;-49
2023/09/15 10:46:02;;;;;;;2.47;0.77;;;;;;;;;;5071769;28;20220;-47
2023/09/15 10:48:51;;;;;;;2.45;0.95;;;;;;;;;;5071004;28;20276;-47
2023/09/15 10:51:19;;;;;;;3.33;0.70;;;;;;;;;;5063189;28;20273;-47
2023/09/15 10:53:51;;;;;;;2.30;0.60;;;;;;;;;;5075278;28;20219;-53
2023/09/15 10:56:19;;;;;;;2.35;0.70;;;;;;;;;;5074059;28;20643;-49
2023/09/15 10:58:49;;;;;;;0.98;0.60;;;;;;;;;;5075590;28;20227;-51
2023/09/15 11:01:18;;;;;;;1.08;0.77;;;;;;;;;;5075780;28;20230;-52
2023/09/15 11:03:45;;;;;;;1.13;0.65;;;;;;;;;;5075315;28;20227;-46
2023/09/15 11:06:14;;;;;;;1.73;0.57;;;;;;;;;;5075706;28;20227;-46
2023/09/15 11:08:41;;;;;;;2.53;0.60;;;;;;;;;;5075030;28;20235;-46
2023/09/15 11:11:11;;;;;;;1.67;0.82;;;;;;;;;;5074664;28;20722;-46
2023/09/15 11:13:40;;;;;;;3.00;0.90;;;;;;;;;;5075437;28;20227;-46
2023/09/15 11:16:10;;;;;;;1.63;0.60;;;;;;;;;;5075059;28;20301;-46
2023/09/15 11:18:38;;;;;;;4.00;0.68;;;;;;;;;;5075070;28;20226;-47
2023/09/15 11:21:06;;;;;;;1.85;0.90;;;;;;;;;;5074899;28;20767;-47
2023/09/15 11:23:34;;;;;;;10.57;0.85;;;;;;;;;;5075201;28;20234;-46
2023/09/15 11:26:07;;;;;;;0.93;0.60;;;;;;;;;;5074414;28;20730;-46
2023/09/15 11:28:54;;;;;;;1.30;0.80;;;;;;;;;;5074649;28;20243;-46
2023/09/15 11:31:22;;;;;;;2.10;0.90;;;;;;;;;;5074762;28;20230;-45
2023/09/15 11:33:52;;;;;;;2.85;0.73;;;;;;;;;;5074808;28;20223;-47
2023/09/15 11:36:24;;;;;;;1.52;0.65;;;;;;;;;;5075013;28;20231;-47
2023/09/15 11:38:52;;;;;;;1.65;0.88;;;;;;;;;;5074424;28;20619;-45
2023/09/15 11:41:28;;;;;;;3.50;0.60;;;;;;;;;;5074570;28;20590;-45
2023/09/15 11:43:56;;;;;;;2.70;1.13;;;;;;;;;;5074635;28;20306;-46
2023/09/15 11:46:24;;;;;;;1.23;0.90;;;;;;;;;;5073463;28;20227;-48
2023/09/15 11:48:52;;;;;;;1.25;0.70;;;;;;;;;;5074463;28;20231;-46
2023/09/15 11:51:20;;;;;;;1.75;0.60;;;;;;;;;;5073709;28;20257;-46
2023/09/15 11:53:48;;;;;;;4.88;0.80;;;;;;;;;;5072510;28;20606;-46
2023/09/15 11:56:19;;;;;;;1.83;0.88;;;;;;;;;;5074714;28;20222;-47
2023/09/15 11:58:47;;;;;;;1.27;0.60;;;;;;;;;;5073158;28;20730;-50
2023/09/15 12:01:18;;;;;;;1.35;0.80;;;;;;;;;;5074650;28;20769;-46
2023/09/15 12:03:48;;;;;;;1.20;0.73;;;;;;;;;;5073218;28;20560;-46
2023/09/15 12:06:19;;;;;;;3.28;0.52;;;;;;;;;;5073399;28;20219;-46
2023/09/15 12:08:48;;;;;;;1.52;0.80;;;;;;;;;;5073580;28;20227;-46
2023/09/15 12:11:16;;;;;;;2.45;0.82;;;;;;;;;;5074442;28;20219;-46
2023/09/15 12:13:48;;;;;;;1.63;0.75;;;;;;;;;;5074006;28;20231;-46
2023/09/15 12:16:17;;;;;;;1.08;0.80;;;;;;;;;;5074365;28;20292;-47
2023/09/15 12:18:46;;;;;;;1.38;0.70;;;;;;;;;;5073901;28;20280;-46
2023/09/15 12:21:14;;;;;;;5.03;0.85;;;;;;;;;;5074028;28;20272;-46
2023/09/15 12:23:42;;;;;;;1.83;0.82;;;;;;;;;;5072931;28;20227;-49
2023/09/15 12:26:11;;;;;;;1.55;0.82;;;;;;;;;;5059293;28;20232;-46
2023/09/15 12:28:41;;;;;;;1.63;0.57;;;;;;;;;;5053377;28;20216;-49
2023/09/15 12:31:16;;;;;;;1.55;0.70;;;;;;;;;;5052641;28;20248;-48
2023/09/15 12:33:44;;;;;;;1.10;0.60;;;;;;;;;;5066209;28;20229;-46
2023/09/15 12:36:15;;;;;;;1.10;0.68;;;;;;;;;;5073899;28;20322;-46
2023/09/15 12:38:43;;;;;;;7.82;0.98;;;;;;;;;;5072925;28;20227;-47
2023/09/15 12:41:10;;;;;;;2.45;0.85;;;;;;;;;;5070870;28;20224;-47
2023/09/15 12:43:38;;;;;;;9.63;1.15;;;;;;;;;;5053401;28;20231;-49
2023/09/15 12:46:05;;;;;;;1.02;0.80;;;;;;;;;;5053460;28;20234;-46
2023/09/15 12:48:33;;;;;;;2.13;0.93;;;;;;;;;;5053701;28;20231;-48
2023/09/15 12:51:00;;;;;;;1.95;0.70;;;;;;;;;;5053442;28;20236;-47
2023/09/15 12:53:27;;;;;;;4.57;0.82;;;;;;;;;;5052830;28;20852;-47
2023/09/15 12:55:55;;;;;;;2.53;0.57;;;;;;;;;;5064487;28;20227;-46
2023/09/15 12:58:23;;;;;;;2.50;0.73;;;;;;;;;;5073181;28;20227;-47
2023/09/15 13:00:51;;;;;;;2.17;0.70;;;;;;;;;;5073288;28;20219;-46
2023/09/15 13:03:20;;;;;;;2.83;0.75;;;;;;;;;;5072981;28;20306;-46
2023/09/15 13:05:49;;;;;;;6.45;0.77;;;;;;;;;;5073219;28;20253;-46
2023/09/15 13:08:16;;;;;;;6.85;0.90;;;;;;;;;;5071585;28;20730;-49
2023/09/15 13:10:43;;;;;;;2.90;0.75;;;;;;;;;;5072815;28;20572;-47
2023/09/15 13:13:11;;;;;;;5.03;0.70;;;;;;;;;;5073438;28;20703;-46
2023/09/15 13:15:38;;;;;;;1.73;0.73;;;;;;;;;;5072506;28;20227;-48
2023/09/15 13:18:06;;;;;;;3.10;1.00;;;;;;;;;;5071606;28;20579;-48
2023/09/15 13:20:34;;;;;;;5.05;0.98;;;;;;;;;;5072706;28;20223;-47
2023/09/15 13:23:01;;;;;;;1.42;0.70;;;;;;;;;;5072156;28;20742;-49
2023/09/15 13:25:28;;;;;;;1.48;0.82;;;;;;;;;;5072710;28;20778;-46
2023/09/15 13:27:56;;;;;;;1.42;0.57;;;;;;;;;;5072567;28;20250;-51
2023/09/15 13:30:23;;;;;;;1.80;0.73;;;;;;;;;;5072560;28;20969;-47
2023/09/15 13:32:51;;;;;;;1.73;0.98;;;;;;;;;;5072002;28;20718;-47
2023/09/15 13:35:18;;;;;;;1.60;0.68;;;;;;;;;;5072621;28;20227;-47
2023/09/15 13:37:45;;;;;;;3.03;0.93;;;;;;;;;;5071968;28;20219;-48
2023/09/15 13:40:12;;;;;;;4.32;0.65;;;;;;;;;;5072822;28;20259;-46
2023/09/15 13:42:40;;;;;;;1.40;0.70;;;;;;;;;;5072234;28;20302;-51
2023/09/15 13:45:10;;;;;;;1.23;0.70;;;;;;;;;;5072722;28;20223;-46
2023/09/15 13:47:38;;;;;;;2.13;0.80;;;;;;;;;;5072145;28;20227;-47
2023/09/15 13:50:06;;;;;;;0.95;0.50;;;;;;;;;;5072206;28;20235;-48
2023/09/15 13:52:33;;;;;;;9.77;1.08;;;;;;;;;;5072421;28;20223;-48
2023/09/15 13:55:00;;;;;;;7.25;0.80;;;;;;;;;;5072286;28;20564;-46
2023/09/15 13:57:27;;;;;;;2.97;0.85;;;;;;;;;;5072528;28;20227;-46
2023/09/15 13:59:56;;;;;;;3.63;0.60;;;;;;;;;;5071212;28;20829;-48
2023/09/15 14:02:25;;;;;;;3.00;0.90;;;;;;;;;;5072399;28;20733;-48
2023/09/15 14:04:54;;;;;;;4.40;0.85;;;;;;;;;;5072056;28;20231;-48
2023/09/15 14:07:22;;;;;;;12.23;1.30;;;;;;;;;;5072015;28;20230;-48
2023/09/15 14:09:49;;;;;;;1.10;0.60;;;;;;;;;;5071985;28;20227;-48
2023/09/15 14:12:16;;;;;;;13.63;1.10;;;;;;;;;;5072314;28;20761;-47
2023/09/15 14:14:43;;;;;;;4.18;0.82;;;;;;;;;;5072234;28;20219;-48
2023/09/15 14:17:11;;;;;;;1.88;0.90;;;;;;;;;;5071861;28;20235;-49
2023/09/15 14:19:38;;;;;;;5.63;0.90;;;;;;;;;;5072212;28;20258;-46
2023/09/15 14:22:05;;;;;;;1.02;0.63;;;;;;;;;;5072116;28;20246;-49
2023/09/15 14:24:34;;;;;;;1.48;0.70;;;;;;;;;;5072443;28;20255;-48
2023/09/15 14:27:03;;;;;;;3.63;0.80;;;;;;;;;;5053823;28;20754;-48
2023/09/15 14:29:31;;;;;;;5.72;1.15;;;;;;;;;;5056415;28;20303;-49
2023/09/15 14:32:00;;;;;;;2.80;0.95;;;;;;;;;;5055962;28;20231;-48
2023/09/15 14:34:27;;;;;;;2.80;0.95;;;;;;;;;;5075681;28;20208;-49
2023/09/15 14:36:58;;;;;;;1.90;0.77;;;;;;;;;;5074983;28;20715;-49
2023/09/15 14:39:26;;;;;;;2.65;0.70;;;;;;;;;;5076369;28;20219;-48
2023/09/15 14:41:55;;;;;;;4.45;0.75;;;;;;;;;;5075393;28;20235;-48
2023/09/15 14:44:23;;;;;;;1.08;0.63;;;;;;;;;;5075797;28;20257;-49
2023/09/15 14:46:50;;;;;;;1.52;0.80;;;;;;;;;;5075329;28;20687;-47
2023/09/15 14:49:18;;;;;;;1.48;0.65;;;;;;;;;;5079990;28;20226;-49
2023/09/15 14:51:45;;;;;;;3.40;0.80;;;;;;;;;;5095385;28;20713;-50